Time;durP1;ratioP1;P1;durP2;ratioP2;P2;SDS_P1;SDS_P2;PMS_P1;PMS_P2;Temp;Humidity;BMP_temperature;BMP_pressure;BME280_temperature;BME280_humidity;BME280_pressure;Samples;Min_cycle;Max_cycle;Signal;HPM_P1;HPM_P2
2022/12/16 00:01:25;;;;;;;42.42;31.27;;;;;;;6.79;70.36;99601.69;5069591;28;20485;-80
2022/12/16 00:03:55;;;;;;;45.20;31.00;;;;;;;6.68;69.88;99585.19;5070730;28;20067;-80
2022/12/16 00:06:24;;;;;;;43.95;31.50;;;;;;;6.77;69.57;99601.84;5073335;28;20032;-80
2022/12/16 00:08:49;;;;;;;41.25;30.63;;;;;;;6.61;69.63;99568.41;5074531;28;20043;-80
2022/12/16 00:11:14;;;;;;;43.13;31.88;;;;;;;6.16;70.16;99505.59;5074234;28;20052;-80
2022/12/16 00:13:40;;;;;;;43.00;32.45;;;;;;;6.13;70.29;99490.16;5074339;28;20485;-79
2022/12/16 00:16:08;;;;;;;42.53;31.20;;;;;;;6.78;70.05;99593.00;5074368;28;20081;-80
2022/12/16 00:18:34;;;;;;;41.90;31.50;;;;;;;6.76;69.84;99584.44;5074409;28;20025;-80
2022/12/16 00:21:00;;;;;;;44.08;31.27;;;;;;;6.41;69.49;99529.38;5074501;28;20032;-79
2022/12/16 00:23:26;;;;;;;45.85;35.25;;;;;;;6.78;70.25;99593.00;5074390;28;20521;-80
2022/12/16 00:25:52;;;;;;;44.42;31.55;;;;;;;6.34;69.81;99534.41;5074364;28;20056;-80
2022/12/16 00:28:21;;;;;;;41.17;29.23;;;;;;;6.62;69.84;99575.28;5074262;28;20059;-80
2022/12/16 00:30:48;;;;;;;42.83;31.33;;;;;;;6.56;69.47;99562.78;5074026;28;20024;-80
2022/12/16 00:33:13;;;;;;;38.95;28.95;;;;;;;6.42;69.78;99539.72;5074202;28;20024;-80
2022/12/16 00:35:38;;;;;;;37.08;28.55;;;;;;;6.60;70.03;99572.00;5074116;28;20031;-80
2022/12/16 00:38:04;;;;;;;41.90;29.38;;;;;;;6.73;69.71;99591.81;5073927;28;20035;-80
2022/12/16 00:40:29;;;;;;;38.60;28.85;;;;;;;6.19;70.08;99518.38;5074036;28;20409;-80
2022/12/16 00:42:54;;;;;;;36.15;27.05;;;;;;;6.63;70.28;99591.84;5073882;28;20158;-80
2022/12/16 00:45:20;;;;;;;37.55;26.35;;;;;;;6.75;69.89;99595.09;5073902;28;20020;-80
2022/12/16 00:47:47;;;;;;;37.03;25.65;;;;;;;6.23;69.75;99521.53;5073837;28;20058;-80
2022/12/16 00:50:13;;;;;;;36.00;26.55;;;;;;;6.67;70.21;99609.78;5073925;28;20028;-80
2022/12/16 00:52:38;;;;;;;35.92;24.90;;;;;;;6.28;70.04;99563.84;5073749;28;20031;-80
2022/12/16 00:55:04;;;;;;;36.63;25.38;;;;;;;6.57;69.90;99613.44;5073574;28;20028;-80
2022/12/16 00:57:29;;;;;;;37.38;26.67;;;;;;;6.51;69.91;99591.28;5073416;28;20067;-79
2022/12/16 00:59:55;;;;;;;38.88;27.75;;;;;;;6.61;70.07;99625.28;5073574;28;20150;-79
2022/12/16 01:02:20;;;;;;;44.90;29.25;;;;;;;6.36;70.26;99587.53;5073466;28;20029;-80
2022/12/16 01:04:45;;;;;;;48.53;31.98;;;;;;;6.52;70.02;99610.44;5072133;28;20034;-80
2022/12/16 01:07:11;;;;;;;46.85;31.75;;;;;;;6.48;70.06;99619.59;5073694;28;20081;-80
2022/12/16 01:09:36;;;;;;;46.83;31.63;;;;;;;6.38;69.75;99606.56;5073420;28;20097;-80
2022/12/16 01:12:02;;;;;;;43.92;29.75;;;;;;;6.51;70.42;99629.78;5073405;28;20052;-80
2022/12/16 01:14:27;;;;;;;42.78;29.40;;;;;;;6.50;70.35;99631.59;5073535;28;20063;-80
2022/12/16 01:16:52;;;;;;;44.22;31.30;;;;;;;5.99;69.97;99541.31;5072825;28;20029;-79
2022/12/16 01:19:18;;;;;;;45.78;34.85;;;;;;;6.37;70.78;99604.91;5071872;28;20120;-80
2022/12/16 01:21:43;;;;;;;42.75;31.10;;;;;;;5.81;70.66;99524.69;5071899;28;20024;-80
2022/12/16 01:24:10;;;;;;;41.95;30.33;;;;;;;6.55;70.59;99625.88;5073177;28;20028;-81
2022/12/16 01:26:36;;;;;;;42.83;29.92;;;;;;;6.25;69.97;99570.22;5073322;28;20028;-80
2022/12/16 01:29:01;;;;;;;40.78;29.10;;;;;;;6.16;70.07;99551.94;5071772;28;20485;-80
2022/12/16 01:31:27;;;;;;;46.03;29.17;;;;;;;6.64;70.53;99604.81;5071633;28;20036;-80
2022/12/16 01:33:53;;;;;;;41.53;28.38;;;;;;;6.67;69.72;99596.66;5071689;28;20020;-80
2022/12/16 01:36:18;;;;;;;43.50;28.98;;;;;;;6.67;70.10;99593.19;5072901;28;20031;-81
2022/12/16 01:38:44;;;;;;;43.80;30.55;;;;;;;6.05;70.40;99490.09;5072872;28;20048;-81
2022/12/16 01:41:11;;;;;;;45.17;30.63;;;;;;;6.28;70.20;99525.34;5072639;28;20064;-80
2022/12/16 01:43:38;;;;;;;46.60;30.73;;;;;;;6.71;69.91;99599.81;5072606;28;20028;-80
2022/12/16 01:46:13;;;;;;;43.88;31.13;;;;;;;6.73;69.58;99587.38;5071387;28;20485;-80
2022/12/16 01:48:57;;;;;;;40.15;28.88;;;;;;;6.61;69.77;99570.19;5072510;28;20029;-79
2022/12/16 01:51:34;;;;;;;50.55;31.00;;;;;;;6.71;69.67;99573.59;5072311;28;20091;-81
2022/12/16 01:54:32;;;;;;;43.55;30.23;;;;;;;6.71;70.35;99576.22;5072492;28;20030;-80
2022/12/16 01:57:02;;;;;;;41.85;29.25;;;;;;;6.36;70.38;99533.28;5072701;28;20028;-80
2022/12/16 01:59:30;;;;;;;42.80;30.85;;;;;;;6.11;70.13;99512.25;5072516;28;20024;-80
2022/12/16 02:01:56;;;;;;;47.97;32.53;;;;;;;6.28;70.05;99532.38;5072341;28;20086;-80
2022/12/16 02:04:22;;;;;;;43.25;30.05;;;;;;;6.44;70.14;99550.06;5071048;28;20024;-80
2022/12/16 02:06:47;;;;;;;44.67;32.05;;;;;;;6.76;70.52;99608.06;5070879;28;20019;-80
2022/12/16 02:09:15;;;;;;;45.83;29.17;;;;;;;6.76;70.30;99612.50;5072191;28;20083;-80
2022/12/16 02:11:55;;;;;;;51.65;34.25;;;;;;;6.38;70.53;99552.31;5072014;28;20052;-81
2022/12/16 02:14:27;;;;;;;56.42;35.45;;;;;;;6.64;70.39;99609.25;5072011;28;20031;-80
2022/12/16 02:17:02;;;;;;;44.85;32.47;;;;;;;6.28;70.67;99545.50;5071996;28;20416;-80
2022/12/16 02:19:31;;;;;;;46.58;31.15;;;;;;;6.69;70.74;99614.91;5071954;28;20027;-79
2022/12/16 02:22:28;;;;;;;57.50;34.42;;;;;;;6.74;70.77;99601.31;5072124;28;20498;-79
2022/12/16 02:24:57;;;;;;;55.15;36.30;;;;;;;6.77;71.50;99604.47;5071773;28;20097;-80
2022/12/16 02:27:56;;;;;;;56.60;33.95;;;;;;;6.82;71.13;99594.34;5071688;28;20024;-79
2022/12/16 02:30:55;;;;;;;58.65;34.38;;;;;;;6.82;71.08;99607.44;5071672;28;20160;-79
2022/12/16 02:33:29;;;;;;;53.30;34.00;;;;;;;6.83;71.18;99593.34;5071794;28;20032;-80
2022/12/16 02:36:04;;;;;;;67.32;36.45;;;;;;;6.88;72.12;99582.41;5071795;28;20028;-80
2022/12/16 02:38:38;;;;;;;63.40;38.40;;;;;;;6.93;71.88;99585.38;5071687;28;20031;-80
2022/12/16 02:41:16;;;;;;;65.00;38.25;;;;;;;7.00;71.74;99587.25;5070956;28;20059;-80
2022/12/16 02:43:50;;;;;;;55.65;34.05;;;;;;;7.01;71.91;99583.63;5071705;28;20470;-79
2022/12/16 02:46:18;;;;;;;68.80;38.20;;;;;;;7.06;72.29;99591.06;5071699;28;20033;-80
2022/12/16 02:48:43;;;;;;;63.10;37.88;;;;;;;6.62;72.34;99514.13;5071719;28;20481;-80
2022/12/16 02:51:09;;;;;;;70.15;42.20;;;;;;;6.58;72.33;99511.00;5071677;28;20032;-79
2022/12/16 02:53:38;;;;;;;77.07;45.47;;;;;;;7.20;71.53;99585.22;5071475;28;20398;-79
2022/12/16 02:56:23;;;;;;;67.85;41.70;;;;;;;7.26;72.13;99581.16;5071281;28;20085;-80
2022/12/16 02:58:52;;;;;;;74.28;45.80;;;;;;;7.29;71.63;99578.22;5071531;28;20107;-80
2022/12/16 03:01:23;;;;;;;77.20;45.75;;;;;;;7.30;71.63;99575.44;5071597;28;20028;-80
2022/12/16 03:04:05;;;;;;;65.40;39.33;;;;;;;6.99;72.12;99513.91;5071481;28;20074;-80
2022/12/16 03:06:34;;;;;;;70.50;43.40;;;;;;;6.85;72.12;99480.34;5071418;28;20270;-80
2022/12/16 03:09:04;;;;;;;68.78;42.13;;;;;;;7.39;72.07;99570.22;5071357;28;20036;-79
2022/12/16 03:11:30;;;;;;;72.10;43.85;;;;;;;7.03;71.77;99514.41;5071090;28;20119;-80
2022/12/16 03:13:57;;;;;;;71.05;40.78;;;;;;;7.45;71.80;99578.34;5071276;28;20111;-80
2022/12/16 03:16:27;;;;;;;69.80;40.25;;;;;;;6.98;72.18;99515.69;5071076;28;20485;-80
2022/12/16 03:19:00;;;;;;;74.32;40.00;;;;;;;7.33;72.90;99575.13;5071176;28;20043;-80
2022/12/16 03:21:30;;;;;;;75.40;42.60;;;;;;;6.99;72.89;99516.53;5071245;28;20021;-80
2022/12/16 03:24:07;;;;;;;62.03;38.33;;;;;;;7.22;72.90;99551.75;5071247;28;20025;-80
2022/12/16 03:26:42;;;;;;;64.70;39.55;;;;;;;7.46;72.50;99574.72;5071323;28;20032;-80
2022/12/16 03:29:14;;;;;;;69.50;41.42;;;;;;;7.29;72.41;99559.84;5071465;28;20082;-80
2022/12/16 03:31:49;;;;;;;70.18;42.25;;;;;;;7.35;72.84;99551.34;5071047;28;20078;-80
2022/12/16 03:34:39;;;;;;;71.28;42.28;;;;;;;7.54;72.68;99593.16;5069845;28;20453;-80
2022/12/16 03:37:07;;;;;;;69.00;41.63;;;;;;;7.59;72.50;99592.69;5068088;28;20501;-79
2022/12/16 03:39:40;;;;;;;70.13;41.08;;;;;;;7.45;72.96;99588.03;5072359;28;20060;-80
2022/12/16 03:42:08;;;;;;;71.13;40.35;;;;;;;7.11;72.69;99506.56;5073702;28;20457;-80
2022/12/16 03:44:34;;;;;;;69.38;42.22;;;;;;;7.12;72.44;99508.22;5075000;28;20024;-80
2022/12/16 03:46:59;;;;;;;69.55;40.28;;;;;;;7.67;73.19;99592.72;5074985;28;20477;-79
2022/12/16 03:49:25;;;;;;;56.88;36.10;;;;;;;7.69;72.47;99598.63;5074791;28;20082;-80
2022/12/16 03:51:52;;;;;;;75.78;42.83;;;;;;;7.43;73.28;99554.03;5074612;28;20028;-79
2022/12/16 03:54:18;;;;;;;73.72;41.88;;;;;;;7.70;73.00;99599.47;5074787;28;20028;-80
2022/12/16 03:56:43;;;;;;;85.85;46.17;;;;;;;7.16;73.62;99506.94;5073485;28;20040;-80
2022/12/16 03:59:09;;;;;;;82.95;47.80;;;;;;;6.99;74.13;99467.47;5074884;28;20127;-80
2022/12/16 04:01:36;;;;;;;85.28;46.30;;;;;;;7.21;73.74;99502.84;5074977;28;20021;-80
2022/12/16 04:04:02;;;;;;;99.72;51.20;;;;;;;7.47;73.87;99544.03;5074906;28;20031;-80
2022/12/16 04:06:28;;;;;;;96.65;50.40;;;;;;;7.43;74.68;99537.41;5074802;28;21095;-80
2022/12/16 04:08:53;;;;;;;98.70;48.95;;;;;;;7.56;74.03;99554.41;5074646;28;20032;-80
2022/12/16 04:25:12;;;;;;;78.55;45.10;;;;;;;7.77;74.52;99618.88;5074256;28;20090;-79
2022/12/16 04:27:38;;;;;;;81.95;47.25;;;;;;;7.27;74.17;99543.41;5074287;28;20028;-80
2022/12/16 04:30:19;;;;;;;72.32;43.15;;;;;;;7.78;73.83;99616.09;5074304;28;20047;-80
